sensor_id;sensor_type;location;lat;lon;timestamp;P1;durP1;ratioP1;P2;durP2;ratioP2
59040;SDS011;44825;53.200;6.448;2024-03-02T00:00:18;3.17;;;1.75;;
59040;SDS011;44825;53.200;6.448;2024-03-02T00:02:46;4.90;;;2.25;;
59040;SDS011;44825;53.200;6.448;2024-03-02T00:05:12;4.28;;;1.80;;
59040;SDS011;44825;53.200;6.448;2024-03-02T00:07:42;5.20;;;2.05;;
59040;SDS011;44825;53.200;6.448;2024-03-02T00:10:10;3.42;;;1.80;;
59040;SDS011;44825;53.200;6.448;2024-03-02T00:12:37;3.42;;;1.70;;
59040;SDS011;44825;53.200;6.448;2024-03-02T00:15:06;5.20;;;2.17;;
59040;SDS011;44825;53.200;6.448;2024-03-02T00:17:43;5.50;;;2.33;;
59040;SDS011;44825;53.200;6.448;2024-03-02T00:20:10;6.40;;;2.47;;
59040;SDS011;44825;53.200;6.448;2024-03-02T00:22:37;4.97;;;2.25;;
59040;SDS011;44825;53.200;6.448;2024-03-02T00:25:03;6.10;;;2.00;;
59040;SDS011;44825;53.200;6.448;2024-03-02T00:27:29;5.20;;;2.30;;
59040;SDS011;44825;53.200;6.448;2024-03-02T00:29:55;4.70;;;2.25;;
59040;SDS011;44825;53.200;6.448;2024-03-02T00:32:21;4.10;;;1.98;;
59040;SDS011;44825;53.200;6.448;2024-03-02T00:34:48;8.25;;;2.38;;
59040;SDS011;44825;53.200;6.448;2024-03-02T00:37:14;4.65;;;2.20;;
59040;SDS011;44825;53.200;6.448;2024-03-02T00:39:40;4.15;;;1.90;;
59040;SDS011;44825;53.200;6.448;2024-03-02T00:42:06;4.50;;;2.42;;
59040;SDS011;44825;53.200;6.448;2024-03-02T00:44:33;4.68;;;2.28;;
59040;SDS011;44825;53.200;6.448;2024-03-02T00:47:00;4.93;;;2.10;;
59040;SDS011;44825;53.200;6.448;2024-03-02T00:49:27;4.57;;;2.17;;
59040;SDS011;44825;53.200;6.448;2024-03-02T00:51:53;5.18;;;2.60;;
59040;SDS011;44825;53.200;6.448;2024-03-02T00:54:20;5.30;;;2.15;;
59040;SDS011;44825;53.200;6.448;2024-03-02T00:56:48;4.70;;;2.40;;
59040;SDS011;44825;53.200;6.448;2024-03-02T00:59:14;4.72;;;2.00;;
59040;SDS011;44825;53.200;6.448;2024-03-02T01:01:40;5.97;;;1.92;;
59040;SDS011;44825;53.200;6.448;2024-03-02T01:04:07;3.78;;;1.98;;
59040;SDS011;44825;53.200;6.448;2024-03-02T01:06:34;5.32;;;2.08;;
59040;SDS011;44825;53.200;6.448;2024-03-02T01:09:00;4.25;;;2.08;;
59040;SDS011;44825;53.200;6.448;2024-03-02T01:11:27;5.30;;;2.33;;
59040;SDS011;44825;53.200;6.448;2024-03-02T01:13:53;4.82;;;1.80;;
59040;SDS011;44825;53.200;6.448;2024-03-02T01:16:20;4.63;;;1.90;;
59040;SDS011;44825;53.200;6.448;2024-03-02T01:18:46;7.03;;;1.80;;
59040;SDS011;44825;53.200;6.448;2024-03-02T01:21:12;4.75;;;2.00;;
59040;SDS011;44825;53.200;6.448;2024-03-02T01:23:38;4.93;;;2.17;;
59040;SDS011;44825;53.200;6.448;2024-03-02T01:26:04;4.90;;;1.77;;
59040;SDS011;44825;53.200;6.448;2024-03-02T01:28:30;3.97;;;1.95;;
59040;SDS011;44825;53.200;6.448;2024-03-02T01:30:56;4.00;;;1.92;;
59040;SDS011;44825;53.200;6.448;2024-03-02T01:33:22;4.55;;;2.00;;
59040;SDS011;44825;53.200;6.448;2024-03-02T01:35:48;5.22;;;2.13;;
59040;SDS011;44825;53.200;6.448;2024-03-02T01:38:14;6.38;;;1.80;;
59040;SDS011;44825;53.200;6.448;2024-03-02T01:40:41;3.78;;;1.70;;
59040;SDS011;44825;53.200;6.448;2024-03-02T01:43:09;4.60;;;2.03;;
59040;SDS011;44825;53.200;6.448;2024-03-02T01:45:35;5.07;;;2.13;;
59040;SDS011;44825;53.200;6.448;2024-03-02T01:48:02;3.97;;;2.00;;
59040;SDS011;44825;53.200;6.448;2024-03-02T01:50:29;4.10;;;1.90;;
59040;SDS011;44825;53.200;6.448;2024-03-02T01:52:57;3.75;;;1.90;;
59040;SDS011;44825;53.200;6.448;2024-03-02T01:55:23;5.28;;;2.13;;
59040;SDS011;44825;53.200;6.448;2024-03-02T01:57:50;4.93;;;2.00;;
59040;SDS011;44825;53.200;6.448;2024-03-02T02:00:17;4.75;;;2.15;;
59040;SDS011;44825;53.200;6.448;2024-03-02T02:02:43;4.78;;;1.95;;
59040;SDS011;44825;53.200;6.448;2024-03-02T02:05:10;3.60;;;1.77;;
59040;SDS011;44825;53.200;6.448;2024-03-02T02:07:36;4.85;;;2.25;;
59040;SDS011;44825;53.200;6.448;2024-03-02T02:10:02;5.50;;;2.20;;
59040;SDS011;44825;53.200;6.448;2024-03-02T02:12:28;4.20;;;1.67;;
59040;SDS011;44825;53.200;6.448;2024-03-02T02:14:54;3.80;;;1.73;;
59040;SDS011;44825;53.200;6.448;2024-03-02T02:17:20;4.80;;;1.98;;
59040;SDS011;44825;53.200;6.448;2024-03-02T02:19:46;5.10;;;2.08;;
59040;SDS011;44825;53.200;6.448;2024-03-02T02:22:13;4.10;;;1.95;;
59040;SDS011;44825;53.200;6.448;2024-03-02T02:24:42;4.55;;;1.92;;
59040;SDS011;44825;53.200;6.448;2024-03-02T02:27:08;5.90;;;2.20;;
59040;SDS011;44825;53.200;6.448;2024-03-02T02:29:34;4.57;;;2.00;;
59040;SDS011;44825;53.200;6.448;2024-03-02T02:32:01;8.80;;;2.08;;
59040;SDS011;44825;53.200;6.448;2024-03-02T02:34:27;6.18;;;2.03;;
59040;SDS011;44825;53.200;6.448;2024-03-02T02:36:53;6.75;;;2.50;;
59040;SDS011;44825;53.200;6.448;2024-03-02T02:39:20;4.55;;;1.92;;
59040;SDS011;44825;53.200;6.448;2024-03-02T02:41:47;5.65;;;2.30;;
59040;SDS011;44825;53.200;6.448;2024-03-02T02:44:13;5.25;;;2.20;;
59040;SDS011;44825;53.200;6.448;2024-03-02T02:46:39;5.43;;;2.30;;
59040;SDS011;44825;53.200;6.448;2024-03-02T02:49:05;6.22;;;2.17;;
59040;SDS011;44825;53.200;6.448;2024-03-02T02:51:32;5.07;;;2.13;;
59040;SDS011;44825;53.200;6.448;2024-03-02T02:53:58;4.38;;;2.28;;
59040;SDS011;44825;53.200;6.448;2024-03-02T02:56:24;4.15;;;2.13;;
59040;SDS011;44825;53.200;6.448;2024-03-02T02:58:50;6.93;;;2.55;;
59040;SDS011;44825;53.200;6.448;2024-03-02T03:01:16;4.88;;;2.25;;
59040;SDS011;44825;53.200;6.448;2024-03-02T03:03:43;7.20;;;2.50;;
59040;SDS011;44825;53.200;6.448;2024-03-02T03:06:09;10.63;;;2.63;;
59040;SDS011;44825;53.200;6.448;2024-03-02T03:08:35;3.35;;;1.83;;
59040;SDS011;44825;53.200;6.448;2024-03-02T03:11:02;8.63;;;2.40;;
59040;SDS011;44825;53.200;6.448;2024-03-02T03:13:28;4.47;;;2.03;;
59040;SDS011;44825;53.200;6.448;2024-03-02T03:15:54;4.80;;;2.10;;
59040;SDS011;44825;53.200;6.448;2024-03-02T03:18:20;5.20;;;2.53;;
59040;SDS011;44825;53.200;6.448;2024-03-02T03:20:46;5.85;;;2.22;;
59040;SDS011;44825;53.200;6.448;2024-03-02T03:23:12;5.63;;;2.30;;
59040;SDS011;44825;53.200;6.448;2024-03-02T03:25:41;4.60;;;2.20;;
59040;SDS011;44825;53.200;6.448;2024-03-02T03:28:07;4.10;;;2.00;;
59040;SDS011;44825;53.200;6.448;2024-03-02T03:30:36;6.53;;;2.30;;
59040;SDS011;44825;53.200;6.448;2024-03-02T03:33:02;6.97;;;3.00;;
59040;SDS011;44825;53.200;6.448;2024-03-02T03:35:28;6.03;;;2.00;;
59040;SDS011;44825;53.200;6.448;2024-03-02T03:37:54;6.30;;;1.92;;
59040;SDS011;44825;53.200;6.448;2024-03-02T03:40:20;4.60;;;1.83;;
59040;SDS011;44825;53.200;6.448;2024-03-02T03:42:46;3.88;;;1.80;;
59040;SDS011;44825;53.200;6.448;2024-03-02T03:45:13;4.20;;;1.90;;
59040;SDS011;44825;53.200;6.448;2024-03-02T03:47:40;4.90;;;2.10;;
59040;SDS011;44825;53.200;6.448;2024-03-02T03:50:06;6.28;;;2.13;;
59040;SDS011;44825;53.200;6.448;2024-03-02T03:52:32;4.82;;;2.08;;
59040;SDS011;44825;53.200;6.448;2024-03-02T03:54:58;4.20;;;1.85;;
59040;SDS011;44825;53.200;6.448;2024-03-02T03:57:25;5.00;;;2.20;;
59040;SDS011;44825;53.200;6.448;2024-03-02T03:59:51;4.28;;;2.03;;
59040;SDS011;44825;53.200;6.448;2024-03-02T04:02:17;8.00;;;2.10;;
59040;SDS011;44825;53.200;6.448;2024-03-02T04:04:44;5.40;;;2.20;;
59040;SDS011;44825;53.200;6.448;2024-03-02T04:07:10;5.68;;;2.20;;
59040;SDS011;44825;53.200;6.448;2024-03-02T04:09:36;7.95;;;1.80;;
59040;SDS011;44825;53.200;6.448;2024-03-02T04:12:02;5.13;;;2.05;;
59040;SDS011;44825;53.200;6.448;2024-03-02T04:14:28;4.22;;;2.05;;
59040;SDS011;44825;53.200;6.448;2024-03-02T04:16:54;6.15;;;2.17;;
59040;SDS011;44825;53.200;6.448;2024-03-02T04:19:20;4.35;;;1.60;;
59040;SDS011;44825;53.200;6.448;2024-03-02T04:21:47;5.90;;;1.92;;
59040;SDS011;44825;53.200;6.448;2024-03-02T04:24:13;4.70;;;1.80;;
59040;SDS011;44825;53.200;6.448;2024-03-02T04:26:39;5.55;;;2.00;;
59040;SDS011;44825;53.200;6.448;2024-03-02T04:29:05;3.40;;;1.63;;
59040;SDS011;44825;53.200;6.448;2024-03-02T04:31:31;4.20;;;1.75;;
59040;SDS011;44825;53.200;6.448;2024-03-02T04:33:57;5.20;;;1.90;;
59040;SDS011;44825;53.200;6.448;2024-03-02T04:36:23;5.38;;;2.00;;
59040;SDS011;44825;53.200;6.448;2024-03-02T04:38:49;5.65;;;1.80;;
59040;SDS011;44825;53.200;6.448;2024-03-02T04:41:15;4.35;;;1.95;;
59040;SDS011;44825;53.200;6.448;2024-03-02T04:43:41;3.95;;;1.83;;
59040;SDS011;44825;53.200;6.448;2024-03-02T04:46:07;4.07;;;1.95;;
59040;SDS011;44825;53.200;6.448;2024-03-02T04:48:33;4.05;;;1.85;;
59040;SDS011;44825;53.200;6.448;2024-03-02T04:50:59;5.03;;;1.98;;
59040;SDS011;44825;53.200;6.448;2024-03-02T04:53:25;7.07;;;1.95;;
59040;SDS011;44825;53.200;6.448;2024-03-02T04:55:51;4.07;;;1.85;;
59040;SDS011;44825;53.200;6.448;2024-03-02T04:58:43;6.20;;;2.13;;
59040;SDS011;44825;53.200;6.448;2024-03-02T05:01:09;3.58;;;1.90;;
59040;SDS011;44825;53.200;6.448;2024-03-02T05:03:35;3.65;;;1.80;;
59040;SDS011;44825;53.200;6.448;2024-03-02T05:06:02;4.00;;;1.90;;
59040;SDS011;44825;53.200;6.448;2024-03-02T05:08:28;6.53;;;2.60;;
59040;SDS011;44825;53.200;6.448;2024-03-02T05:10:54;4.95;;;2.17;;
59040;SDS011;44825;53.200;6.448;2024-03-02T05:13:40;4.35;;;2.10;;
59040;SDS011;44825;53.200;6.448;2024-03-02T05:16:06;4.75;;;1.90;;
59040;SDS011;44825;53.200;6.448;2024-03-02T05:18:32;6.20;;;2.33;;
59040;SDS011;44825;53.200;6.448;2024-03-02T05:20:58;5.13;;;2.25;;
59040;SDS011;44825;53.200;6.448;2024-03-02T05:23:24;3.90;;;1.85;;
59040;SDS011;44825;53.200;6.448;2024-03-02T05:25:50;5.15;;;1.92;;
59040;SDS011;44825;53.200;6.448;2024-03-02T05:28:16;6.82;;;2.17;;
59040;SDS011;44825;53.200;6.448;2024-03-02T05:30:42;5.80;;;2.15;;
59040;SDS011;44825;53.200;6.448;2024-03-02T05:33:08;3.15;;;1.67;;
59040;SDS011;44825;53.200;6.448;2024-03-02T05:35:34;6.05;;;1.90;;
59040;SDS011;44825;53.200;6.448;2024-03-02T05:38:00;4.22;;;1.60;;
59040;SDS011;44825;53.200;6.448;2024-03-02T05:40:26;5.75;;;1.80;;
59040;SDS011;44825;53.200;6.448;2024-03-02T05:42:52;3.85;;;1.55;;
59040;SDS011;44825;53.200;6.448;2024-03-02T05:45:19;5.32;;;2.03;;
59040;SDS011;44825;53.200;6.448;2024-03-02T05:47:45;4.07;;;1.95;;
59040;SDS011;44825;53.200;6.448;2024-03-02T05:50:11;4.53;;;1.80;;
59040;SDS011;44825;53.200;6.448;2024-03-02T05:52:37;4.60;;;2.13;;
59040;SDS011;44825;53.200;6.448;2024-03-02T05:55:04;5.40;;;2.20;;
59040;SDS011;44825;53.200;6.448;2024-03-02T05:57:30;6.97;;;1.83;;
59040;SDS011;44825;53.200;6.448;2024-03-02T06:00:08;3.92;;;2.03;;
59040;SDS011;44825;53.200;6.448;2024-03-02T06:02:35;5.05;;;1.60;;
59040;SDS011;44825;53.200;6.448;2024-03-02T06:05:04;4.00;;;1.52;;
59040;SDS011;44825;53.200;6.448;2024-03-02T06:07:32;4.50;;;1.75;;
59040;SDS011;44825;53.200;6.448;2024-03-02T06:09:58;3.70;;;1.70;;
59040;SDS011;44825;53.200;6.448;2024-03-02T06:12:24;4.20;;;1.70;;
59040;SDS011;44825;53.200;6.448;2024-03-02T06:14:50;4.95;;;1.67;;
59040;SDS011;44825;53.200;6.448;2024-03-02T06:17:16;4.45;;;1.70;;
59040;SDS011;44825;53.200;6.448;2024-03-02T06:19:42;4.72;;;1.70;;
59040;SDS011;44825;53.200;6.448;2024-03-02T06:22:08;4.43;;;1.73;;
59040;SDS011;44825;53.200;6.448;2024-03-02T06:24:35;4.70;;;1.70;;
59040;SDS011;44825;53.200;6.448;2024-03-02T06:27:01;4.57;;;1.30;;
59040;SDS011;44825;53.200;6.448;2024-03-02T06:29:27;4.28;;;1.60;;
59040;SDS011;44825;53.200;6.448;2024-03-02T06:31:53;4.40;;;1.80;;
59040;SDS011;44825;53.200;6.448;2024-03-02T06:34:19;2.85;;;1.40;;
59040;SDS011;44825;53.200;6.448;2024-03-02T06:36:45;6.22;;;1.40;;
59040;SDS011;44825;53.200;6.448;2024-03-02T06:39:12;4.32;;;2.10;;
59040;SDS011;44825;53.200;6.448;2024-03-02T06:41:38;3.17;;;1.40;;
59040;SDS011;44825;53.200;6.448;2024-03-02T06:44:05;3.22;;;1.33;;
59040;SDS011;44825;53.200;6.448;2024-03-02T06:46:31;4.47;;;1.60;;
59040;SDS011;44825;53.200;6.448;2024-03-02T06:48:57;3.28;;;1.17;;
59040;SDS011;44825;53.200;6.448;2024-03-02T06:51:23;4.32;;;1.65;;
59040;SDS011;44825;53.200;6.448;2024-03-02T06:53:49;3.45;;;1.20;;
59040;SDS011;44825;53.200;6.448;2024-03-02T06:56:15;3.10;;;1.33;;
59040;SDS011;44825;53.200;6.448;2024-03-02T06:58:41;4.65;;;1.75;;
59040;SDS011;44825;53.200;6.448;2024-03-02T07:01:08;3.63;;;1.55;;
59040;SDS011;44825;53.200;6.448;2024-03-02T07:03:34;3.80;;;1.63;;
59040;SDS011;44825;53.200;6.448;2024-03-02T07:06:00;5.07;;;1.60;;
59040;SDS011;44825;53.200;6.448;2024-03-02T07:08:27;3.88;;;1.52;;
59040;SDS011;44825;53.200;6.448;2024-03-02T07:10:53;1.48;;;0.70;;
59040;SDS011;44825;53.200;6.448;2024-03-02T07:13:19;2.75;;;1.20;;
59040;SDS011;44825;53.200;6.448;2024-03-02T07:15:45;4.32;;;1.10;;
59040;SDS011;44825;53.200;6.448;2024-03-02T07:18:29;2.92;;;1.02;;
59040;SDS011;44825;53.200;6.448;2024-03-02T07:20:56;2.35;;;0.95;;
59040;SDS011;44825;53.200;6.448;2024-03-02T07:23:26;3.75;;;1.15;;
59040;SDS011;44825;53.200;6.448;2024-03-02T07:25:55;2.55;;;1.10;;
59040;SDS011;44825;53.200;6.448;2024-03-02T07:28:25;3.35;;;1.30;;
59040;SDS011;44825;53.200;6.448;2024-03-02T07:31:01;3.05;;;1.00;;
59040;SDS011;44825;53.200;6.448;2024-03-02T07:33:29;2.75;;;1.10;;
59040;SDS011;44825;53.200;6.448;2024-03-02T07:35:55;2.58;;;0.90;;
59040;SDS011;44825;53.200;6.448;2024-03-02T07:38:22;2.13;;;0.70;;
59040;SDS011;44825;53.200;6.448;2024-03-02T07:40:48;5.15;;;0.85;;
59040;SDS011;44825;53.200;6.448;2024-03-02T07:43:21;1.77;;;0.68;;
59040;SDS011;44825;53.200;6.448;2024-03-02T07:45:47;2.47;;;0.90;;
59040;SDS011;44825;53.200;6.448;2024-03-02T07:48:13;2.05;;;0.60;;
59040;SDS011;44825;53.200;6.448;2024-03-02T07:50:40;1.17;;;0.63;;
59040;SDS011;44825;53.200;6.448;2024-03-02T07:53:06;1.33;;;0.57;;
59040;SDS011;44825;53.200;6.448;2024-03-02T07:55:33;0.90;;;0.50;;
59040;SDS011;44825;53.200;6.448;2024-03-02T07:58:00;1.00;;;0.50;;
59040;SDS011;44825;53.200;6.448;2024-03-02T08:00:26;0.70;;;0.43;;
59040;SDS011;44825;53.200;6.448;2024-03-02T08:02:53;2.33;;;0.70;;
59040;SDS011;44825;53.200;6.448;2024-03-02T08:05:19;0.80;;;0.50;;
59040;SDS011;44825;53.200;6.448;2024-03-02T08:07:45;1.40;;;0.68;;
59040;SDS011;44825;53.200;6.448;2024-03-02T08:10:12;2.50;;;0.60;;
59040;SDS011;44825;53.200;6.448;2024-03-02T08:12:38;1.02;;;0.60;;
59040;SDS011;44825;53.200;6.448;2024-03-02T08:15:05;2.25;;;0.80;;
59040;SDS011;44825;53.200;6.448;2024-03-02T08:17:31;2.90;;;1.00;;
59040;SDS011;44825;53.200;6.448;2024-03-02T08:19:57;3.53;;;1.15;;
59040;SDS011;44825;53.200;6.448;2024-03-02T08:22:23;3.72;;;1.10;;
59040;SDS011;44825;53.200;6.448;2024-03-02T08:24:53;2.47;;;0.80;;
59040;SDS011;44825;53.200;6.448;2024-03-02T08:27:19;2.75;;;1.02;;
59040;SDS011;44825;53.200;6.448;2024-03-02T08:29:45;2.25;;;0.80;;
59040;SDS011;44825;53.200;6.448;2024-03-02T08:32:11;2.35;;;0.70;;
59040;SDS011;44825;53.200;6.448;2024-03-02T08:34:37;3.28;;;0.70;;
59040;SDS011;44825;53.200;6.448;2024-03-02T08:37:04;1.35;;;0.60;;
59040;SDS011;44825;53.200;6.448;2024-03-02T08:39:30;3.55;;;0.70;;
59040;SDS011;44825;53.200;6.448;2024-03-02T08:41:56;1.30;;;0.43;;
59040;SDS011;44825;53.200;6.448;2024-03-02T08:44:22;3.00;;;0.73;;
59040;SDS011;44825;53.200;6.448;2024-03-02T08:46:49;1.25;;;0.45;;
59040;SDS011;44825;53.200;6.448;2024-03-02T08:49:15;2.97;;;0.60;;
59040;SDS011;44825;53.200;6.448;2024-03-02T08:51:41;2.88;;;0.55;;
59040;SDS011;44825;53.200;6.448;2024-03-02T08:54:07;2.13;;;0.60;;
59040;SDS011;44825;53.200;6.448;2024-03-02T08:56:33;2.60;;;0.77;;
59040;SDS011;44825;53.200;6.448;2024-03-02T08:58:59;1.92;;;0.50;;
59040;SDS011;44825;53.200;6.448;2024-03-02T09:01:25;2.05;;;0.80;;
59040;SDS011;44825;53.200;6.448;2024-03-02T09:03:51;3.17;;;0.50;;
59040;SDS011;44825;53.200;6.448;2024-03-02T09:06:17;6.70;;;1.15;;
59040;SDS011;44825;53.200;6.448;2024-03-02T09:08:45;1.40;;;0.43;;
59040;SDS011;44825;53.200;6.448;2024-03-02T09:11:11;2.67;;;0.45;;
59040;SDS011;44825;53.200;6.448;2024-03-02T09:13:38;0.85;;;0.45;;
59040;SDS011;44825;53.200;6.448;2024-03-02T09:16:04;2.53;;;0.73;;
59040;SDS011;44825;53.200;6.448;2024-03-02T09:18:30;3.05;;;0.60;;
59040;SDS011;44825;53.200;6.448;2024-03-02T09:20:56;3.72;;;0.70;;
59040;SDS011;44825;53.200;6.448;2024-03-02T09:23:22;1.75;;;0.50;;
59040;SDS011;44825;53.200;6.448;2024-03-02T09:25:48;2.08;;;0.57;;
59040;SDS011;44825;53.200;6.448;2024-03-02T09:28:17;2.55;;;0.50;;
59040;SDS011;44825;53.200;6.448;2024-03-02T09:30:43;2.08;;;0.60;;
59040;SDS011;44825;53.200;6.448;2024-03-02T09:33:09;3.22;;;0.60;;
59040;SDS011;44825;53.200;6.448;2024-03-02T09:35:35;2.63;;;0.60;;
59040;SDS011;44825;53.200;6.448;2024-03-02T09:38:01;2.20;;;0.43;;
59040;SDS011;44825;53.200;6.448;2024-03-02T09:40:28;1.83;;;0.45;;
59040;SDS011;44825;53.200;6.448;2024-03-02T09:42:54;3.13;;;0.65;;
59040;SDS011;44825;53.200;6.448;2024-03-02T09:45:22;1.13;;;0.40;;
59040;SDS011;44825;53.200;6.448;2024-03-02T09:47:48;2.55;;;0.55;;
59040;SDS011;44825;53.200;6.448;2024-03-02T09:50:15;1.83;;;0.60;;
59040;SDS011;44825;53.200;6.448;2024-03-02T09:52:44;2.35;;;0.50;;
59040;SDS011;44825;53.200;6.448;2024-03-02T09:55:13;2.20;;;0.60;;
59040;SDS011;44825;53.200;6.448;2024-03-02T09:57:40;3.25;;;0.60;;
59040;SDS011;44825;53.200;6.448;2024-03-02T10:00:07;1.88;;;0.50;;
59040;SDS011;44825;53.200;6.448;2024-03-02T10:02:33;1.50;;;0.50;;
59040;SDS011;44825;53.200;6.448;2024-03-02T10:04:59;2.17;;;0.60;;
59040;SDS011;44825;53.200;6.448;2024-03-02T10:07:29;3.65;;;0.63;;
59040;SDS011;44825;53.200;6.448;2024-03-02T10:09:55;3.88;;;0.50;;
59040;SDS011;44825;53.200;6.448;2024-03-02T10:12:21;1.67;;;0.40;;
59040;SDS011;44825;53.200;6.448;2024-03-02T10:14:47;3.95;;;0.93;;
59040;SDS011;44825;53.200;6.448;2024-03-02T10:17:16;1.25;;;0.40;;
59040;SDS011;44825;53.200;6.448;2024-03-02T10:19:43;3.05;;;0.80;;
59040;SDS011;44825;53.200;6.448;2024-03-02T10:22:09;2.63;;;0.70;;
59040;SDS011;44825;53.200;6.448;2024-03-02T10:27:14;2.63;;;0.73;;
59040;SDS011;44825;53.200;6.448;2024-03-02T10:29:40;3.08;;;0.70;;
59040;SDS011;44825;53.200;6.448;2024-03-02T10:32:08;2.20;;;0.80;;
59040;SDS011;44825;53.200;6.448;2024-03-02T10:34:35;5.72;;;1.35;;
59040;SDS011;44825;53.200;6.448;2024-03-02T10:37:01;2.50;;;0.85;;
59040;SDS011;44825;53.200;6.448;2024-03-02T10:39:27;1.98;;;0.65;;
59040;SDS011;44825;53.200;6.448;2024-03-02T10:41:55;3.38;;;0.70;;
59040;SDS011;44825;53.200;6.448;2024-03-02T10:44:22;3.42;;;0.85;;
59040;SDS011;44825;53.200;6.448;2024-03-02T10:46:49;2.67;;;0.40;;
59040;SDS011;44825;53.200;6.448;2024-03-02T10:49:16;2.15;;;0.60;;
59040;SDS011;44825;53.200;6.448;2024-03-02T10:51:42;3.78;;;1.13;;
59040;SDS011;44825;53.200;6.448;2024-03-02T10:54:08;2.92;;;0.80;;
59040;SDS011;44825;53.200;6.448;2024-03-02T10:56:44;1.50;;;0.55;;
59040;SDS011;44825;53.200;6.448;2024-03-02T11:01:43;1.40;;;0.52;;
59040;SDS011;44825;53.200;6.448;2024-03-02T11:04:11;2.50;;;0.85;;
59040;SDS011;44825;53.200;6.448;2024-03-02T11:06:38;2.25;;;0.70;;
59040;SDS011;44825;53.200;6.448;2024-03-02T11:09:07;2.78;;;0.80;;
59040;SDS011;44825;53.200;6.448;2024-03-02T11:11:40;4.63;;;1.00;;
59040;SDS011;44825;53.200;6.448;2024-03-02T11:14:10;2.25;;;0.90;;
59040;SDS011;44825;53.200;6.448;2024-03-02T11:16:39;3.13;;;1.10;;
59040;SDS011;44825;53.200;6.448;2024-03-02T11:19:07;2.58;;;0.80;;
59040;SDS011;44825;53.200;6.448;2024-03-02T11:21:34;2.05;;;0.63;;
59040;SDS011;44825;53.200;6.448;2024-03-02T11:24:22;3.15;;;0.75;;
59040;SDS011;44825;53.200;6.448;2024-03-02T11:26:50;3.95;;;0.88;;
59040;SDS011;44825;53.200;6.448;2024-03-02T11:32:15;2.97;;;0.88;;
59040;SDS011;44825;53.200;6.448;2024-03-02T11:34:42;2.20;;;0.70;;
59040;SDS011;44825;53.200;6.448;2024-03-02T11:37:12;2.45;;;0.70;;
59040;SDS011;44825;53.200;6.448;2024-03-02T11:39:39;2.58;;;0.70;;
59040;SDS011;44825;53.200;6.448;2024-03-02T11:42:08;4.35;;;0.85;;
59040;SDS011;44825;53.200;6.448;2024-03-02T11:44:35;3.17;;;0.63;;
59040;SDS011;44825;53.200;6.448;2024-03-02T11:47:03;1.58;;;0.52;;
59040;SDS011;44825;53.200;6.448;2024-03-02T11:52:07;2.33;;;0.70;;
59040;SDS011;44825;53.200;6.448;2024-03-02T11:54:34;2.10;;;1.00;;
59040;SDS011;44825;53.200;6.448;2024-03-02T11:57:03;2.22;;;1.05;;
59040;SDS011;44825;53.200;6.448;2024-03-02T11:59:29;3.50;;;1.35;;
59040;SDS011;44825;53.200;6.448;2024-03-02T12:01:55;2.70;;;1.05;;
59040;SDS011;44825;53.200;6.448;2024-03-02T12:04:22;3.42;;;0.90;;
59040;SDS011;44825;53.200;6.448;2024-03-02T12:07:22;1.70;;;0.80;;
59040;SDS011;44825;53.200;6.448;2024-03-02T12:09:41;2.95;;;1.08;;
59040;SDS011;44825;53.200;6.448;2024-03-02T12:12:07;2.88;;;0.88;;
59040;SDS011;44825;53.200;6.448;2024-03-02T12:14:34;3.08;;;0.90;;
59040;SDS011;44825;53.200;6.448;2024-03-02T12:17:01;2.10;;;0.65;;
59040;SDS011;44825;53.200;6.448;2024-03-02T12:19:29;6.25;;;1.17;;
59040;SDS011;44825;53.200;6.448;2024-03-02T12:21:56;2.60;;;0.77;;
59040;SDS011;44825;53.200;6.448;2024-03-02T12:24:22;2.72;;;0.98;;
59040;SDS011;44825;53.200;6.448;2024-03-02T12:26:51;3.33;;;0.57;;
59040;SDS011;44825;53.200;6.448;2024-03-02T12:29:19;3.83;;;0.70;;
59040;SDS011;44825;53.200;6.448;2024-03-02T12:31:47;5.13;;;0.60;;
59040;SDS011;44825;53.200;6.448;2024-03-02T12:34:13;2.35;;;0.73;;
59040;SDS011;44825;53.200;6.448;2024-03-02T12:36:40;2.33;;;0.80;;
59040;SDS011;44825;53.200;6.448;2024-03-02T12:39:10;3.92;;;0.60;;
59040;SDS011;44825;53.200;6.448;2024-03-02T12:41:39;1.70;;;0.50;;
59040;SDS011;44825;53.200;6.448;2024-03-02T12:44:05;4.78;;;0.60;;
59040;SDS011;44825;53.200;6.448;2024-03-02T12:46:31;3.25;;;0.70;;
59040;SDS011;44825;53.200;6.448;2024-03-02T12:48:58;2.67;;;0.70;;
59040;SDS011;44825;53.200;6.448;2024-03-02T12:51:26;2.85;;;0.60;;
59040;SDS011;44825;53.200;6.448;2024-03-02T12:53:55;2.83;;;0.63;;
59040;SDS011;44825;53.200;6.448;2024-03-02T12:56:22;1.70;;;0.55;;
59040;SDS011;44825;53.200;6.448;2024-03-02T12:58:52;3.58;;;0.70;;
59040;SDS011;44825;53.200;6.448;2024-03-02T13:01:19;1.58;;;0.60;;
59040;SDS011;44825;53.200;6.448;2024-03-02T13:03:45;3.30;;;0.80;;
59040;SDS011;44825;53.200;6.448;2024-03-02T13:06:12;3.08;;;0.60;;
59040;SDS011;44825;53.200;6.448;2024-03-02T13:08:38;5.30;;;0.90;;
59040;SDS011;44825;53.200;6.448;2024-03-02T13:11:05;2.97;;;0.98;;
59040;SDS011;44825;53.200;6.448;2024-03-02T13:13:32;2.38;;;0.70;;
59040;SDS011;44825;53.200;6.448;2024-03-02T13:15:59;8.02;;;1.02;;
59040;SDS011;44825;53.200;6.448;2024-03-02T13:18:26;4.63;;;0.70;;
59040;SDS011;44825;53.200;6.448;2024-03-02T13:20:52;3.97;;;0.73;;
59040;SDS011;44825;53.200;6.448;2024-03-02T13:23:18;3.40;;;0.98;;
59040;SDS011;44825;53.200;6.448;2024-03-02T13:25:45;3.20;;;0.70;;
59040;SDS011;44825;53.200;6.448;2024-03-02T13:28:12;1.85;;;0.70;;
59040;SDS011;44825;53.200;6.448;2024-03-02T13:30:38;4.45;;;1.20;;
59040;SDS011;44825;53.200;6.448;2024-03-02T13:33:04;4.45;;;1.13;;
59040;SDS011;44825;53.200;6.448;2024-03-02T13:35:30;3.67;;;1.00;;
59040;SDS011;44825;53.200;6.448;2024-03-02T13:37:56;3.20;;;1.25;;
59040;SDS011;44825;53.200;6.448;2024-03-02T13:40:22;5.00;;;1.38;;
59040;SDS011;44825;53.200;6.448;2024-03-02T13:42:48;4.05;;;1.52;;
59040;SDS011;44825;53.200;6.448;2024-03-02T13:45:16;3.05;;;1.30;;
59040;SDS011;44825;53.200;6.448;2024-03-02T13:47:43;3.00;;;1.40;;
59040;SDS011;44825;53.200;6.448;2024-03-02T13:50:09;4.40;;;1.75;;
59040;SDS011;44825;53.200;6.448;2024-03-02T13:52:35;3.78;;;1.70;;
59040;SDS011;44825;53.200;6.448;2024-03-02T13:55:01;3.95;;;1.70;;
59040;SDS011;44825;53.200;6.448;2024-03-02T13:57:27;5.47;;;2.10;;
59040;SDS011;44825;53.200;6.448;2024-03-02T13:59:55;4.28;;;2.03;;
59040;SDS011;44825;53.200;6.448;2024-03-02T14:02:21;4.25;;;1.90;;
59040;SDS011;44825;53.200;6.448;2024-03-02T14:04:48;4.85;;;1.92;;
59040;SDS011;44825;53.200;6.448;2024-03-02T14:07:15;3.88;;;1.90;;
59040;SDS011;44825;53.200;6.448;2024-03-02T14:09:42;4.07;;;1.73;;
59040;SDS011;44825;53.200;6.448;2024-03-02T14:12:08;3.45;;;1.60;;
59040;SDS011;44825;53.200;6.448;2024-03-02T14:14:35;3.45;;;1.63;;
59040;SDS011;44825;53.200;6.448;2024-03-02T14:17:01;3.75;;;2.08;;
59040;SDS011;44825;53.200;6.448;2024-03-02T14:19:31;6.05;;;2.15;;
59040;SDS011;44825;53.200;6.448;2024-03-02T14:21:57;5.25;;;2.30;;
59040;SDS011;44825;53.200;6.448;2024-03-02T14:24:23;3.65;;;2.10;;
59040;SDS011;44825;53.200;6.448;2024-03-02T14:26:51;4.70;;;2.40;;
59040;SDS011;44825;53.200;6.448;2024-03-02T14:29:17;4.43;;;2.05;;
59040;SDS011;44825;53.200;6.448;2024-03-02T14:31:43;3.97;;;2.00;;
59040;SDS011;44825;53.200;6.448;2024-03-02T14:34:13;4.00;;;2.05;;
59040;SDS011;44825;53.200;6.448;2024-03-02T14:36:39;5.38;;;1.75;;
59040;SDS011;44825;53.200;6.448;2024-03-02T14:39:06;7.15;;;2.08;;
59040;SDS011;44825;53.200;6.448;2024-03-02T14:41:35;5.22;;;1.83;;
59040;SDS011;44825;53.200;6.448;2024-03-02T14:44:01;4.35;;;1.80;;
59040;SDS011;44825;53.200;6.448;2024-03-02T14:46:28;5.63;;;1.90;;
59040;SDS011;44825;53.200;6.448;2024-03-02T14:48:54;5.68;;;1.55;;
59040;SDS011;44825;53.200;6.448;2024-03-02T14:51:20;4.00;;;1.70;;
59040;SDS011;44825;53.200;6.448;2024-03-02T14:53:46;2.92;;;1.60;;
59040;SDS011;44825;53.200;6.448;2024-03-02T14:56:12;4.40;;;1.30;;